Time;durP1;ratioP1;P1;durP2;ratioP2;P2;SDS_P1;SDS_P2;PMS_P1;PMS_P2;Temp;Humidity;BMP_temperature;BMP_pressure;BME280_temperature;BME280_humidity;BME280_pressure;Samples;Min_cycle;Max_cycle;Signal;HPM_P1;HPM_P2
2022/03/09 00:01:47;;;;;;;;;;;-1.30;99.90;;;;;;5087412;28;19924;-69
2022/03/09 00:04:14;;;;;;;;;;;-1.30;99.90;;;;;;5084034;28;19967;-69
2022/03/09 00:06:41;;;;;;;;;;;-1.40;99.90;;;;;;5080331;28;19951;-69
2022/03/09 00:09:10;;;;;;;;;;;-1.50;99.90;;;;;;5074930;28;19925;-69
2022/03/09 00:11:37;;;;;;;;;;;-1.70;99.90;;;;;;5080133;28;19930;-69
2022/03/09 00:14:03;;;;;;;;;;;-1.70;99.90;;;;;;5082967;28;19935;-69
2022/03/09 00:16:30;;;;;;;;;;;-1.70;99.90;;;;;;5069557;28;19925;-69
2022/03/09 00:18:57;;;;;;;;;;;-1.70;99.90;;;;;;5077163;28;19924;-69
2022/03/09 00:21:26;;;;;;;;;;;-1.80;99.90;;;;;;5085638;28;20272;-69
2022/03/09 00:23:55;;;;;;;;;;;-1.90;99.90;;;;;;5083434;28;19924;-69
2022/03/09 00:26:22;;;;;;;;;;;-2.00;99.90;;;;;;5085669;28;20038;-69
2022/03/09 00:28:48;;;;;;;;;;;-2.10;99.90;;;;;;5083330;28;20406;-69
2022/03/09 00:31:19;;;;;;;;;;;-2.30;99.90;;;;;;5085336;28;20405;-69
2022/03/09 00:33:46;;;;;;;;;;;-2.40;99.90;;;;;;5085138;28;19924;-69
2022/03/09 00:36:12;;;;;;;;;;;-2.50;99.90;;;;;;5070948;28;19931;-69
2022/03/09 00:38:40;;;;;;;;;;;-2.70;99.90;;;;;;5085302;28;20379;-69
2022/03/09 00:41:09;;;;;;;;;;;-3.00;99.90;;;;;;5084620;28;19932;-69
2022/03/09 00:43:36;;;;;;;;;;;-3.10;99.90;;;;;;5071314;28;19931;-69
2022/03/09 00:46:06;;;;;;;;;;;-3.10;99.90;;;;;;5070759;28;19980;-69
2022/03/09 00:48:36;;;;;;;;;;;-3.30;99.90;;;;;;5084414;28;20330;-69
2022/03/09 00:51:03;;;;;;;;;;;-3.40;99.90;;;;;;5071153;28;19924;-69
2022/03/09 00:53:32;;;;;;;;;;;-3.50;99.90;;;;;;5070436;28;19959;-69
2022/03/09 00:55:59;;;;;;;;;;;-3.50;99.90;;;;;;5070628;28;19928;-69
2022/03/09 00:58:27;;;;;;;;;;;-3.50;99.90;;;;;;5070036;28;20284;-69
2022/03/09 01:00:54;;;;;;;;;;;-3.50;99.90;;;;;;5070709;28;19925;-70
2022/03/09 01:03:21;;;;;;;;;;;-3.50;99.90;;;;;;5084418;28;19924;-69
2022/03/09 01:05:47;;;;;;;;;;;-3.50;99.90;;;;;;5069874;28;19969;-69
2022/03/09 01:08:16;;;;;;;;;;;-3.40;99.90;;;;;;5086568;28;20437;-69
2022/03/09 01:10:43;;;;;;;;;;;-3.30;99.90;;;;;;5084566;28;19931;-69
2022/03/09 01:13:10;;;;;;;;;;;-3.30;99.90;;;;;;5078246;28;20006;-69
2022/03/09 01:15:37;;;;;;;;;;;-3.30;99.90;;;;;;5069777;28;20010;-69
2022/03/09 01:18:03;;;;;;;;;;;-3.40;99.90;;;;;;5070647;28;19971;-69
2022/03/09 01:20:30;;;;;;;;;;;-3.40;99.90;;;;;;5082347;28;19928;-70
2022/03/09 01:22:57;;;;;;;;;;;-3.50;99.90;;;;;;5086941;28;20386;-69
2022/03/09 01:25:23;;;;;;;;;;;-3.50;99.90;;;;;;5070305;28;20295;-69
2022/03/09 01:27:50;;;;;;;;;;;-3.40;99.90;;;;;;5084830;28;20003;-69
2022/03/09 01:30:17;;;;;;;;;;;-3.40;99.90;;;;;;5073650;28;19946;-69
2022/03/09 01:32:43;;;;;;;;;;;-3.30;99.90;;;;;;5080313;28;19932;-70
2022/03/09 01:35:10;;;;;;;;;;;-3.20;99.90;;;;;;5081775;28;19924;-70
2022/03/09 01:37:37;;;;;;;;;;;-3.00;99.90;;;;;;5084456;28;20445;-70
2022/03/09 01:40:04;;;;;;;;;;;-2.80;99.90;;;;;;5078089;28;19929;-69
2022/03/09 01:42:30;;;;;;;;;;;-2.70;99.90;;;;;;5070195;28;20019;-70
2022/03/09 01:45:01;;;;;;;;;;;-2.60;99.90;;;;;;5073123;28;20031;-69
2022/03/09 01:47:28;;;;;;;;;;;-2.60;99.90;;;;;;5087637;28;20381;-70
2022/03/09 01:49:54;;;;;;;;;;;-2.70;99.90;;;;;;5073191;28;19924;-70
2022/03/09 01:52:22;;;;;;;;;;;-2.80;99.90;;;;;;5073672;28;19971;-70
2022/03/09 01:54:50;;;;;;;;;;;-3.00;99.90;;;;;;5089924;28;19932;-70
2022/03/09 01:57:18;;;;;;;;;;;-3.10;99.90;;;;;;5091606;28;19928;-70
2022/03/09 01:59:46;;;;;;;;;;;-3.20;99.90;;;;;;5090386;28;20006;-70
2022/03/09 02:02:13;;;;;;;;;;;-3.10;99.90;;;;;;5092181;28;19924;-70
2022/03/09 02:04:40;;;;;;;;;;;-3.10;99.90;;;;;;5090786;28;19963;-70
2022/03/09 02:07:08;;;;;;;;;;;-3.10;99.90;;;;;;5088085;28;20011;-70
2022/03/09 02:09:46;;;;;;;;;;;-3.10;99.90;;;;;;5080947;28;20422;-70
2022/03/09 02:12:18;;;;;;;;;;;-3.10;99.90;;;;;;5092093;28;20442;-70
2022/03/09 02:14:49;;;;;;;;;;;-3.20;99.90;;;;;;5072458;28;19925;-70
2022/03/09 02:17:17;;;;;;;;;;;-3.40;99.90;;;;;;5076914;28;19924;-70
2022/03/09 02:19:45;;;;;;;;;;;-3.60;99.90;;;;;;5072970;28;20015;-70
2022/03/09 02:22:23;;;;;;;;;;;-3.60;99.90;;;;;;5073820;28;20010;-70
2022/03/09 02:24:51;;;;;;;;;;;-3.50;99.90;;;;;;5087723;28;20024;-70
2022/03/09 02:27:20;;;;;;;;;;;-3.50;99.90;;;;;;5072268;28;20016;-70
2022/03/09 02:29:50;;;;;;;;;;;-3.30;99.90;;;;;;5073099;28;20367;-70
2022/03/09 02:32:17;;;;;;;;;;;-3.20;99.90;;;;;;5085040;28;20418;-70
2022/03/09 02:34:50;;;;;;;;;;;-3.10;99.90;;;;;;5082425;28;19929;-71
2022/03/09 02:37:17;;;;;;;;;;;-3.00;99.90;;;;;;5072121;28;19935;-70
2022/03/09 02:39:44;;;;;;;;;;;-3.00;99.90;;;;;;5073478;28;19930;-70
2022/03/09 02:42:11;;;;;;;;;;;-2.90;99.90;;;;;;5091561;28;19977;-70
2022/03/09 02:44:37;;;;;;;;;;;-2.90;99.90;;;;;;5075507;28;19979;-70
2022/03/09 02:47:05;;;;;;;;;;;-2.90;99.90;;;;;;5071844;28;19924;-70
2022/03/09 02:49:34;;;;;;;;;;;-2.90;99.90;;;;;;5072710;28;20029;-70
2022/03/09 02:52:01;;;;;;;;;;;-3.00;99.90;;;;;;5073062;28;19924;-70
2022/03/09 02:54:30;;;;;;;;;;;-3.00;99.90;;;;;;5086497;28;19928;-70
2022/03/09 02:56:57;;;;;;;;;;;-3.10;99.90;;;;;;5078308;28;19963;-70
2022/03/09 02:59:27;;;;;;;;;;;-3.10;99.90;;;;;;5073728;28;19924;-70
2022/03/09 03:01:53;;;;;;;;;;;-3.30;99.90;;;;;;5072166;28;20429;-70
2022/03/09 03:04:20;;;;;;;;;;;-3.40;99.90;;;;;;5087234;28;19924;-70
2022/03/09 03:06:47;;;;;;;;;;;-3.50;99.90;;;;;;5077833;28;19954;-70
2022/03/09 03:09:14;;;;;;;;;;;-3.50;99.90;;;;;;5072638;28;19924;-70
2022/03/09 03:11:44;;;;;;;;;;;-3.50;99.90;;;;;;5080162;28;19978;-70
2022/03/09 03:14:10;;;;;;;;;;;-3.40;99.90;;;;;;5071782;28;19999;-70
2022/03/09 03:16:37;;;;;;;;;;;-3.20;99.90;;;;;;5072026;28;19968;-71
2022/03/09 03:19:04;;;;;;;;;;;-3.20;99.90;;;;;;5072475;28;19972;-70
2022/03/09 03:21:31;;;;;;;;;;;-3.30;99.90;;;;;;5071906;28;20350;-70
2022/03/09 03:24:01;;;;;;;;;;;-3.50;99.90;;;;;;5088670;28;19925;-71
2022/03/09 03:26:28;;;;;;;;;;;-3.70;99.90;;;;;;5088546;28;20015;-70
2022/03/09 03:28:55;;;;;;;;;;;-3.90;99.90;;;;;;5076660;28;20324;-71
2022/03/09 03:31:22;;;;;;;;;;;-4.00;99.90;;;;;;5090706;28;19925;-71
2022/03/09 03:33:51;;;;;;;;;;;-4.00;99.90;;;;;;5088551;28;19925;-70
2022/03/09 03:36:28;;;;;;;;;;;-4.00;99.90;;;;;;5090881;28;20026;-71
2022/03/09 03:38:55;;;;;;;;;;;-4.00;99.90;;;;;;5075377;28;19925;-71
2022/03/09 03:41:22;;;;;;;;;;;-4.00;99.90;;;;;;5070757;28;19962;-71
2022/03/09 03:43:49;;;;;;;;;;;-3.90;99.90;;;;;;5079275;28;20002;-71
2022/03/09 03:46:18;;;;;;;;;;;-3.80;99.90;;;;;;5071511;28;19939;-71
2022/03/09 03:48:45;;;;;;;;;;;-3.70;99.90;;;;;;5071355;28;19924;-71
2022/03/09 03:51:12;;;;;;;;;;;-3.70;99.90;;;;;;5082734;28;20271;-71
2022/03/09 03:53:38;;;;;;;;;;;-3.80;99.90;;;;;;5074883;28;20015;-71
2022/03/09 03:56:05;;;;;;;;;;;-4.00;99.90;;;;;;5071959;28;20035;-71
2022/03/09 03:58:33;;;;;;;;;;;-4.10;99.90;;;;;;5071114;28;19936;-71
2022/03/09 04:00:59;;;;;;;;;;;-4.10;99.90;;;;;;5086499;28;19932;-71
2022/03/09 04:03:26;;;;;;;;;;;-4.10;99.90;;;;;;5072091;28;20275;-71
2022/03/09 04:05:53;;;;;;;;;;;-4.10;99.90;;;;;;5071033;28;20292;-71
2022/03/09 04:08:20;;;;;;;;;;;-4.10;99.90;;;;;;5082204;28;20384;-71
2022/03/09 04:10:51;;;;;;;;;;;-4.30;99.90;;;;;;5073537;28;19924;-71
2022/03/09 04:13:17;;;;;;;;;;;-4.30;99.90;;;;;;5078050;28;19946;-71
2022/03/09 04:15:44;;;;;;;;;;;-4.20;99.90;;;;;;5089585;28;19933;-71
2022/03/09 04:18:11;;;;;;;;;;;-4.30;99.90;;;;;;5078621;28;19947;-69
2022/03/09 04:20:38;;;;;;;;;;;-4.30;99.90;;;;;;5078745;28;19928;-69
2022/03/09 04:23:10;;;;;;;;;;;-4.40;99.90;;;;;;5070368;28;19935;-69
2022/03/09 04:25:37;;;;;;;;;;;-4.40;99.90;;;;;;5071460;28;19924;-69
2022/03/09 04:28:05;;;;;;;;;;;-4.40;99.90;;;;;;5089893;28;19924;-69
2022/03/09 04:30:32;;;;;;;;;;;-4.60;99.90;;;;;;5087783;28;19924;-69
2022/03/09 04:32:59;;;;;;;;;;;-4.60;99.90;;;;;;5071346;28;20015;-69
2022/03/09 04:35:26;;;;;;;;;;;-4.60;99.90;;;;;;5071050;28;19924;-71
2022/03/09 04:37:52;;;;;;;;;;;-4.60;99.90;;;;;;5075328;28;19983;-69
2022/03/09 04:40:19;;;;;;;;;;;-4.70;99.90;;;;;;5091114;28;20448;-69
2022/03/09 04:42:51;;;;;;;;;;;-4.80;99.90;;;;;;5072508;28;20425;-69
2022/03/09 04:45:18;;;;;;;;;;;-4.90;99.90;;;;;;5069918;28;20367;-69
2022/03/09 04:47:45;;;;;;;;;;;-4.90;99.90;;;;;;5070584;28;20319;-69
2022/03/09 04:50:11;;;;;;;;;;;-4.90;99.90;;;;;;5085408;28;19928;-69
2022/03/09 04:52:40;;;;;;;;;;;-5.00;99.90;;;;;;5077625;28;20015;-69
2022/03/09 04:55:07;;;;;;;;;;;-4.90;99.90;;;;;;5073578;28;19967;-69
2022/03/09 04:57:37;;;;;;;;;;;-4.60;99.90;;;;;;5083024;28;19925;-69
2022/03/09 05:00:08;;;;;;;;;;;-4.60;99.90;;;;;;5070378;28;19951;-69
2022/03/09 05:02:35;;;;;;;;;;;-4.80;99.90;;;;;;5087430;28;20433;-68
2022/03/09 05:05:02;;;;;;;;;;;-5.10;99.90;;;;;;5070715;28;20022;-69
2022/03/09 05:07:30;;;;;;;;;;;-5.10;99.90;;;;;;5078746;28;19928;-68
2022/03/09 05:09:57;;;;;;;;;;;-5.10;99.90;;;;;;5082822;28;19935;-68
2022/03/09 05:12:24;;;;;;;;;;;-5.10;99.90;;;;;;5070709;28;19959;-69
2022/03/09 05:14:50;;;;;;;;;;;-5.30;99.90;;;;;;5069354;28;19963;-68
2022/03/09 05:17:17;;;;;;;;;;;-5.40;99.90;;;;;;5074049;28;19935;-69
2022/03/09 05:19:44;;;;;;;;;;;-5.50;99.90;;;;;;5091976;28;19924;-69
2022/03/09 05:22:10;;;;;;;;;;;-5.40;99.90;;;;;;5074524;28;19929;-69
2022/03/09 05:24:47;;;;;;;;;;;-5.30;99.90;;;;;;5072978;28;19924;-69
2022/03/09 05:27:14;;;;;;;;;;;-5.30;99.90;;;;;;5073883;28;19924;-69
2022/03/09 05:29:41;;;;;;;;;;;-5.40;99.90;;;;;;5081798;28;19924;-69
2022/03/09 05:32:10;;;;;;;;;;;-5.40;99.90;;;;;;5073475;28;19936;-69
2022/03/09 05:34:38;;;;;;;;;;;-5.40;99.90;;;;;;5072737;28;19933;-69
2022/03/09 05:37:04;;;;;;;;;;;-5.40;99.90;;;;;;5072641;28;19924;-69
2022/03/09 05:39:34;;;;;;;;;;;-5.40;99.90;;;;;;5071899;28;19924;-69
2022/03/09 05:42:00;;;;;;;;;;;-5.40;99.90;;;;;;5081300;28;19936;-69
2022/03/09 05:44:27;;;;;;;;;;;-5.40;99.90;;;;;;5082460;28;19928;-68
2022/03/09 05:46:54;;;;;;;;;;;-5.40;99.90;;;;;;5073771;28;19974;-69
2022/03/09 05:49:24;;;;;;;;;;;-5.40;99.90;;;;;;5088467;28;19955;-69
2022/03/09 05:51:54;;;;;;;;;;;-5.30;99.90;;;;;;5073740;28;19928;-69
2022/03/09 05:54:21;;;;;;;;;;;-5.00;99.90;;;;;;5090792;28;19942;-69
2022/03/09 05:56:47;;;;;;;;;;;-4.90;99.90;;;;;;5079125;28;19924;-69
2022/03/09 05:59:14;;;;;;;;;;;-4.70;99.90;;;;;;5072410;28;19959;-69
2022/03/09 06:01:41;;;;;;;;;;;-4.60;99.90;;;;;;5089390;28;20030;-69
2022/03/09 06:04:08;;;;;;;;;;;-4.60;99.90;;;;;;5079281;28;19931;-69
2022/03/09 06:06:35;;;;;;;;;;;-4.60;99.90;;;;;;5081866;28;19925;-69
2022/03/09 06:09:01;;;;;;;;;;;-4.60;99.90;;;;;;5076970;28;19929;-69
2022/03/09 06:11:28;;;;;;;;;;;-4.50;99.90;;;;;;5088587;28;20011;-69
2022/03/09 06:13:55;;;;;;;;;;;-4.40;99.90;;;;;;5088773;28;19928;-69
2022/03/09 06:16:22;;;;;;;;;;;-4.20;99.90;;;;;;5079029;28;19966;-69
2022/03/09 06:18:51;;;;;;;;;;;-4.00;99.90;;;;;;5091754;28;20268;-69
2022/03/09 06:21:17;;;;;;;;;;;-4.00;99.90;;;;;;5084538;28;19924;-69
2022/03/09 06:23:47;;;;;;;;;;;-3.90;99.90;;;;;;5072147;28;19929;-70
2022/03/09 06:26:13;;;;;;;;;;;-3.90;99.90;;;;;;5082384;28;20511;-69
2022/03/09 06:28:40;;;;;;;;;;;-3.90;99.90;;;;;;5078382;28;19924;-70
2022/03/09 06:31:07;;;;;;;;;;;-3.90;99.90;;;;;;5072528;28;19988;-70
2022/03/09 06:33:36;;;;;;;;;;;-3.90;99.90;;;;;;5072663;28;19924;-70
2022/03/09 06:36:06;;;;;;;;;;;-3.80;99.90;;;;;;5087565;28;19959;-70
2022/03/09 06:38:33;;;;;;;;;;;-3.80;99.90;;;;;;5089237;28;19928;-70
2022/03/09 06:41:00;;;;;;;;;;;-3.70;99.90;;;;;;5077888;28;19931;-69
2022/03/09 06:43:27;;;;;;;;;;;-3.70;99.90;;;;;;5079629;28;19924;-69
2022/03/09 06:45:53;;;;;;;;;;;-3.60;99.90;;;;;;5091750;28;20285;-70
2022/03/09 06:48:22;;;;;;;;;;;-2.90;99.90;;;;;;5072692;28;20007;-70
2022/03/09 06:50:49;;;;;;;;;;;-1.80;99.90;;;;;;5077374;28;20273;-70
2022/03/09 06:53:18;;;;;;;;;;;-0.70;99.90;;;;;;5089183;28;20006;-70
2022/03/09 06:55:45;;;;;;;;;;;0.20;99.90;;;;;;5086595;28;19959;-70
2022/03/09 06:58:11;;;;;;;;;;;1.20;99.90;;;;;;5080129;28;19998;-70
2022/03/09 07:00:40;;;;;;;;;;;2.10;99.90;;;;;;5075136;28;20015;-71
2022/03/09 07:03:07;;;;;;;;;;;2.80;99.90;;;;;;5084446;28;19924;-71
2022/03/09 07:05:34;;;;;;;;;;;3.30;99.90;;;;;;5086983;28;19963;-71
2022/03/09 07:08:01;;;;;;;;;;;3.80;99.90;;;;;;5085032;28;19959;-71
2022/03/09 07:10:28;;;;;;;;;;;4.10;99.90;;;;;;5073598;28;20469;-72
2022/03/09 07:12:55;;;;;;;;;;;4.40;99.90;;;;;;5074092;28;19969;-72
2022/03/09 07:15:28;;;;;;;;;;;4.30;99.90;;;;;;5090007;28;20004;-72
2022/03/09 07:17:54;;;;;;;;;;;4.70;99.90;;;;;;5072337;28;20010;-72
2022/03/09 07:20:21;;;;;;;;;;;5.10;99.90;;;;;;5072109;28;19920;-72
2022/03/09 07:22:48;;;;;;;;;;;5.50;99.90;;;;;;5072208;28;20011;-73
2022/03/09 07:25:14;;;;;;;;;;;5.90;99.90;;;;;;5085992;28;19943;-73
2022/03/09 07:27:42;;;;;;;;;;;6.20;99.90;;;;;;5080875;28;19977;-73
2022/03/09 07:30:09;;;;;;;;;;;6.20;99.50;;;;;;5077700;28;19920;-73
2022/03/09 07:32:36;;;;;;;;;;;6.10;99.20;;;;;;5071933;28;20428;-73
2022/03/09 07:35:14;;;;;;;;;;;6.20;98.90;;;;;;5082892;28;20302;-73
2022/03/09 07:37:41;;;;;;;;;;;6.00;99.00;;;;;;5082274;28;19924;-73
2022/03/09 07:40:08;;;;;;;;;;;6.00;98.80;;;;;;5079037;28;20002;-72
2022/03/09 07:42:35;;;;;;;;;;;5.70;98.50;;;;;;5085331;28;20639;-73
2022/03/09 07:45:05;;;;;;;;;;;5.80;99.30;;;;;;5071023;28;19920;-73
2022/03/09 07:47:32;;;;;;;;;;;6.20;99.10;;;;;;5076170;28;19959;-72
2022/03/09 07:50:00;;;;;;;;;;;6.80;98.70;;;;;;5088378;28;19928;-73
2022/03/09 07:52:27;;;;;;;;;;;7.10;97.60;;;;;;5075019;28;19920;-71
2022/03/09 07:54:54;;;;;;;;;;;7.40;97.40;;;;;;5081986;28;19924;-72
2022/03/09 07:57:20;;;;;;;;;;;7.70;96.80;;;;;;5083094;28;19930;-72
2022/03/09 07:59:47;;;;;;;;;;;7.60;96.50;;;;;;5072978;28;19924;-71
2022/03/09 08:02:13;;;;;;;;;;;7.40;96.30;;;;;;5089790;28;19927;-72
2022/03/09 08:04:40;;;;;;;;;;;7.70;97.00;;;;;;5088479;28;19938;-72
2022/03/09 08:07:07;;;;;;;;;;;7.90;96.30;;;;;;5070698;28;20015;-72
2022/03/09 08:09:36;;;;;;;;;;;8.00;95.80;;;;;;5078839;28;20432;-71
2022/03/09 08:12:03;;;;;;;;;;;7.70;96.30;;;;;;5070942;28;20343;-71
2022/03/09 08:14:30;;;;;;;;;;;7.50;95.80;;;;;;5070691;28;19927;-72
2022/03/09 08:16:56;;;;;;;;;;;7.40;96.10;;;;;;5077695;28;19919;-72
2022/03/09 08:19:23;;;;;;;;;;;7.50;96.30;;;;;;5070160;28;20351;-72
2022/03/09 08:21:49;;;;;;;;;;;7.90;95.90;;;;;;5082224;28;19927;-72
2022/03/09 08:24:16;;;;;;;;;;;7.80;96.30;;;;;;5081158;28;20597;-72
2022/03/09 08:26:43;;;;;;;;;;;8.10;95.60;;;;;;5083235;28;20346;-72
2022/03/09 08:29:12;;;;;;;;;;;8.20;95.10;;;;;;5071292;28;19924;-72
2022/03/09 08:31:38;;;;;;;;;;;7.80;94.70;;;;;;5076122;28;19968;-72
2022/03/09 08:34:07;;;;;;;;;;;7.80;94.90;;;;;;5087891;28;20427;-72
2022/03/09 08:36:33;;;;;;;;;;;7.30;95.10;;;;;;5086086;28;19999;-72
2022/03/09 08:39:01;;;;;;;;;;;8.00;95.00;;;;;;5080538;28;20581;-72
2022/03/09 08:41:29;;;;;;;;;;;8.30;95.30;;;;;;5077993;28;19939;-72
2022/03/09 08:44:26;;;;;;;;;;;8.60;94.80;;;;;;5075137;28;19959;-72
2022/03/09 08:46:56;;;;;;;;;;;8.80;94.30;;;;;;5080007;28;20515;-72
2022/03/09 08:49:23;;;;;;;;;;;9.30;95.20;;;;;;5074860;28;19920;-72
2022/03/09 08:51:50;;;;;;;;;;;9.60;94.80;;;;;;5083975;28;19921;-72
2022/03/09 08:54:21;;;;;;;;;;;10.00;93.50;;;;;;5089225;28;19927;-72
2022/03/09 08:56:48;;;;;;;;;;;10.40;93.10;;;;;;5078568;28;19927;-72
2022/03/09 08:59:15;;;;;;;;;;;10.90;92.50;;;;;;5093685;28;19920;-72
2022/03/09 09:01:42;;;;;;;;;;;10.80;92.30;;;;;;5093728;28;20262;-72
2022/03/09 09:04:14;;;;;;;;;;;10.60;91.50;;;;;;5075293;28;20316;-72
2022/03/09 09:06:41;;;;;;;;;;;10.70;92.40;;;;;;5075116;28;19927;-72
2022/03/09 09:09:10;;;;;;;;;;;11.00;92.00;;;;;;5082735;28;19959;-72
2022/03/09 09:11:38;;;;;;;;;;;11.40;91.90;;;;;;5088742;28;19955;-72
2022/03/09 09:14:04;;;;;;;;;;;11.90;91.50;;;;;;5093250;28;19920;-72
2022/03/09 09:16:38;;;;;;;;;;;11.80;90.60;;;;;;5089680;28;20011;-72
2022/03/09 09:19:05;;;;;;;;;;;11.80;91.50;;;;;;5087086;28;19928;-72
2022/03/09 09:21:32;;;;;;;;;;;12.00;90.70;;;;;;5083820;28;20375;-72
2022/03/09 09:23:59;;;;;;;;;;;12.20;90.70;;;;;;5074007;28;20037;-72
2022/03/09 09:26:25;;;;;;;;;;;12.40;91.10;;;;;;5074028;28;20015;-72
2022/03/09 09:29:12;;;;;;;;;;;13.00;90.40;;;;;;5086694;28;20581;-72
2022/03/09 09:31:40;;;;;;;;;;;13.30;88.70;;;;;;5082356;28;20420;-72
2022/03/09 09:34:13;;;;;;;;;;;13.40;87.10;;;;;;5081714;28;20027;-72
2022/03/09 09:36:43;;;;;;;;;;;13.60;86.80;;;;;;5084751;28;19967;-72
2022/03/09 09:39:13;;;;;;;;;;;14.00;87.10;;;;;;5075610;28;19926;-72
2022/03/09 09:41:43;;;;;;;;;;;13.90;85.70;;;;;;5085599;28;19920;-72
2022/03/09 09:44:11;;;;;;;;;;;13.90;85.50;;;;;;5075823;28;19987;-72
2022/03/09 09:46:41;;;;;;;;;;;13.90;85.80;;;;;;5085705;28;20276;-71
2022/03/09 09:49:09;;;;;;;;;;;13.70;85.00;;;;;;5075282;28;19931;-71
2022/03/09 09:51:43;;;;;;;;;;;13.90;87.20;;;;;;5091052;28;19963;-71
2022/03/09 09:54:10;;;;;;;;;;;14.20;85.50;;;;;;5082568;28;19943;-70
2022/03/09 09:56:38;;;;;;;;;;;14.30;85.40;;;;;;5073726;28;19930;-71
2022/03/09 09:59:08;;;;;;;;;;;14.00;85.50;;;;;;5073546;28;19921;-70
2022/03/09 10:01:35;;;;;;;;;;;13.80;84.70;;;;;;5088841;28;19926;-71
2022/03/09 10:04:02;;;;;;;;;;;14.10;84.80;;;;;;5080062;28;19931;-71
2022/03/09 10:06:33;;;;;;;;;;;14.50;84.10;;;;;;5081600;28;19927;-71
2022/03/09 10:09:05;;;;;;;;;;;15.00;86.00;;;;;;5073063;28;19924;-71
2022/03/09 10:11:45;;;;;;;;;;;14.80;83.90;;;;;;5083786;28;19924;-71
2022/03/09 10:14:12;;;;;;;;;;;15.20;85.20;;;;;;5080262;28;19970;-71
2022/03/09 10:16:59;;;;;;;;;;;15.70;82.60;;;;;;5088130;28;19947;-71
2022/03/09 10:19:51;;;;;;;;;;;16.40;83.50;;;;;;5077708;28;19924;-71
2022/03/09 10:22:33;;;;;;;;;;;16.30;80.90;;;;;;5086209;28;20421;-71
2022/03/09 10:25:22;;;;;;;;;;;15.20;81.90;;;;;;5072901;28;20259;-71
2022/03/09 10:27:51;;;;;;;;;;;15.70;81.80;;;;;;5072817;28;19978;-71
2022/03/09 10:30:18;;;;;;;;;;;15.20;81.40;;;;;;5073056;28;19920;-71
2022/03/09 10:32:50;;;;;;;;;;;15.20;81.60;;;;;;5091006;28;20033;-71
2022/03/09 10:35:18;;;;;;;;;;;15.60;81.70;;;;;;5077296;28;19920;-71
2022/03/09 10:37:46;;;;;;;;;;;15.90;81.90;;;;;;5075543;28;19970;-71
2022/03/09 10:40:19;;;;;;;;;;;16.30;80.90;;;;;;5081957;28;19927;-71
2022/03/09 10:42:47;;;;;;;;;;;16.70;80.20;;;;;;5073000;28;19920;-71
2022/03/09 10:45:17;;;;;;;;;;;16.90;79.40;;;;;;5072955;28;19928;-71
2022/03/09 10:47:43;;;;;;;;;;;16.40;79.40;;;;;;5086225;28;20014;-71
2022/03/09 10:50:12;;;;;;;;;;;16.30;80.20;;;;;;5090478;28;19926;-71
2022/03/09 10:52:46;;;;;;;;;;;16.50;80.60;;;;;;5087515;28;19920;-71
2022/03/09 10:55:23;;;;;;;;;;;16.70;79.30;;;;;;5072513;28;19920;-71
2022/03/09 10:57:51;;;;;;;;;;;17.00;79.90;;;;;;5073607;28;19920;-71
2022/03/09 11:00:34;;;;;;;;;;;17.10;79.80;;;;;;5085196;28;19926;-71
2022/03/09 11:03:04;;;;;;;;;;;16.90;78.80;;;;;;5089713;28;19920;-71
2022/03/09 11:05:32;;;;;;;;;;;16.60;80.00;;;;;;5076107;28;19928;-71
2022/03/09 11:08:00;;;;;;;;;;;16.40;79.20;;;;;;5078859;28;19967;-70
2022/03/09 11:10:28;;;;;;;;;;;16.10;78.70;;;;;;5074533;28;20520;-72
2022/03/09 11:12:56;;;;;;;;;;;15.90;79.40;;;;;;5090974;28;19927;-70
2022/03/09 11:15:23;;;;;;;;;;;15.10;79.50;;;;;;5089224;28;19938;-71
2022/03/09 11:17:50;;;;;;;;;;;16.00;80.10;;;;;;5084568;28;20675;-70
2022/03/09 11:20:22;;;;;;;;;;;17.10;80.10;;;;;;5083641;28;19926;-71
2022/03/09 11:22:50;;;;;;;;;;;17.50;78.20;;;;;;5074810;28;19920;-71
2022/03/09 11:25:20;;;;;;;;;;;17.30;78.10;;;;;;5086609;28;19921;-70
2022/03/09 11:27:50;;;;;;;;;;;16.90;78.70;;;;;;5071854;28;19920;-71
2022/03/09 11:30:26;;;;;;;;;;;17.90;78.90;;;;;;5083310;28;19923;-71
2022/03/09 11:32:55;;;;;;;;;;;18.70;77.40;;;;;;5082138;28;20015;-71
2022/03/09 11:35:30;;;;;;;;;;;19.60;76.40;;;;;;5073471;28;20501;-71
2022/03/09 11:37:57;;;;;;;;;;;19.10;74.20;;;;;;5087375;28;19927;-71
2022/03/09 11:40:24;;;;;;;;;;;17.70;75.50;;;;;;5090464;28;19998;-71
2022/03/09 11:42:51;;;;;;;;;;;17.40;75.90;;;;;;5080451;28;20047;-71
2022/03/09 11:45:27;;;;;;;;;;;17.40;76.20;;;;;;5071453;28;19927;-71
2022/03/09 11:48:03;;;;;;;;;;;18.60;77.00;;;;;;5078890;28;19920;-71
2022/03/09 11:50:32;;;;;;;;;;;20.00;75.70;;;;;;5076643;28;19928;-72
2022/03/09 11:53:06;;;;;;;;;;;19.40;74.60;;;;;;5089262;28;19920;-72
2022/03/09 11:55:34;;;;;;;;;;;19.30;74.10;;;;;;5069939;28;19963;-72
2022/03/09 11:58:02;;;;;;;;;;;19.70;75.00;;;;;;5070656;28;19920;-72
2022/03/09 12:00:28;;;;;;;;;;;20.00;75.90;;;;;;5071249;28;19955;-72
2022/03/09 12:02:56;;;;;;;;;;;20.80;76.40;;;;;;5078451;28;19919;-72
2022/03/09 12:05:32;;;;;;;;;;;21.00;74.10;;;;;;5077238;28;19974;-72
2022/03/09 12:07:59;;;;;;;;;;;19.50;73.80;;;;;;5077553;28;19964;-72
2022/03/09 12:10:43;;;;;;;;;;;18.50;73.20;;;;;;5071480;28;19928;-71
2022/03/09 12:13:11;;;;;;;;;;;17.50;74.20;;;;;;5071472;28;19920;-71
2022/03/09 12:16:00;;;;;;;;;;;17.10;75.00;;;;;;5075012;28;19967;-72
2022/03/09 12:18:31;;;;;;;;;;;17.50;76.30;;;;;;5071115;28;19974;-72
2022/03/09 12:20:58;;;;;;;;;;;17.40;76.10;;;;;;5071152;28;20015;-72
2022/03/09 12:23:25;;;;;;;;;;;17.80;75.20;;;;;;5070802;28;19920;-72
2022/03/09 12:25:53;;;;;;;;;;;17.50;75.10;;;;;;5074115;28;19927;-72
2022/03/09 12:28:27;;;;;;;;;;;17.60;75.20;;;;;;5074964;28;19935;-72
2022/03/09 12:30:53;;;;;;;;;;;18.40;76.40;;;;;;5079301;28;19934;-72
2022/03/09 12:33:22;;;;;;;;;;;19.10;75.80;;;;;;5071403;28;20313;-72
2022/03/09 12:35:50;;;;;;;;;;;20.00;75.70;;;;;;5080460;28;19919;-70
2022/03/09 12:38:16;;;;;;;;;;;20.10;73.60;;;;;;5083374;28;20011;-72
2022/03/09 12:40:45;;;;;;;;;;;20.30;74.20;;;;;;5084077;28;19931;-70
2022/03/09 12:43:13;;;;;;;;;;;19.80;73.20;;;;;;5071432;28;19931;-72
2022/03/09 12:45:50;;;;;;;;;;;19.20;74.10;;;;;;5084416;28;19927;-72
2022/03/09 12:48:18;;;;;;;;;;;18.70;74.00;;;;;;5070623;28;19927;-72
2022/03/09 12:50:45;;;;;;;;;;;18.40;74.30;;;;;;5085198;28;20569;-72
2022/03/09 12:53:12;;;;;;;;;;;18.40;74.70;;;;;;5070777;28;19965;-71
2022/03/09 12:55:39;;;;;;;;;;;18.90;74.30;;;;;;5079337;28;19999;-72
2022/03/09 12:58:06;;;;;;;;;;;19.30;74.60;;;;;;5075724;28;19920;-72
2022/03/09 13:00:36;;;;;;;;;;;18.80;74.20;;;;;;5084589;28;20010;-72
2022/03/09 13:03:08;;;;;;;;;;;18.90;74.40;;;;;;5083152;28;20015;-72
2022/03/09 13:05:36;;;;;;;;;;;18.10;73.20;;;;;;5078819;28;20371;-72
2022/03/09 13:08:05;;;;;;;;;;;18.70;75.20;;;;;;5079151;28;19929;-72
2022/03/09 13:10:38;;;;;;;;;;;19.30;74.00;;;;;;5085359;28;20036;-72
2022/03/09 13:13:05;;;;;;;;;;;19.30;73.10;;;;;;5078545;28;19923;-71
2022/03/09 13:15:42;;;;;;;;;;;19.60;73.50;;;;;;5074130;28;20458;-72
2022/03/09 13:18:11;;;;;;;;;;;20.00;73.10;;;;;;5088990;28;20010;-71
2022/03/09 13:20:38;;;;;;;;;;;18.60;72.20;;;;;;5071342;28;19982;-72
2022/03/09 13:23:23;;;;;;;;;;;18.10;73.70;;;;;;5070525;28;19932;-72
2022/03/09 13:25:49;;;;;;;;;;;18.30;73.90;;;;;;5078751;28;19920;-72
2022/03/09 13:28:28;;;;;;;;;;;19.10;73.30;;;;;;5069487;28;19926;-72
2022/03/09 13:30:57;;;;;;;;;;;19.60;74.10;;;;;;5070160;28;19926;-72
2022/03/09 13:33:25;;;;;;;;;;;20.50;73.60;;;;;;5070560;28;19927;-71
2022/03/09 13:35:52;;;;;;;;;;;19.90;71.60;;;;;;5069639;28;20608;-71
2022/03/09 13:38:24;;;;;;;;;;;19.10;71.80;;;;;;5068481;28;19932;-72
2022/03/09 13:40:51;;;;;;;;;;;18.30;73.40;;;;;;5090320;28;19920;-72
2022/03/09 13:43:18;;;;;;;;;;;18.80;73.80;;;;;;5077610;28;20017;-71
2022/03/09 13:45:45;;;;;;;;;;;19.10;72.20;;;;;;5074001;28;20006;-72
2022/03/09 13:48:18;;;;;;;;;;;19.80;73.40;;;;;;5072490;28;19920;-72
2022/03/09 13:50:56;;;;;;;;;;;20.50;72.00;;;;;;5092325;28;19920;-71
2022/03/09 13:53:22;;;;;;;;;;;21.50;73.00;;;;;;5081716;28;19966;-71
2022/03/09 13:55:50;;;;;;;;;;;21.80;72.10;;;;;;5083458;28;19920;-71
2022/03/09 13:58:27;;;;;;;;;;;22.10;70.70;;;;;;5076675;28;19964;-73
2022/03/09 14:01:07;;;;;;;;;;;21.50;69.80;;;;;;5091249;28;19927;-70
2022/03/09 14:03:42;;;;;;;;;;;20.40;69.40;;;;;;5091321;28;19924;-71
2022/03/09 14:06:16;;;;;;;;;;;19.70;70.00;;;;;;5089974;28;19931;-71
2022/03/09 14:08:46;;;;;;;;;;;19.20;71.10;;;;;;5084176;28;19927;-71
2022/03/09 14:11:16;;;;;;;;;;;19.70;71.60;;;;;;5087776;28;19921;-72
2022/03/09 14:14:05;;;;;;;;;;;21.10;70.90;;;;;;5073305;28;19930;-72
2022/03/09 14:16:39;;;;;;;;;;;22.20;69.80;;;;;;5090329;28;20439;-72
2022/03/09 14:19:12;;;;;;;;;;;23.10;70.00;;;;;;5087606;28;19927;-72
2022/03/09 14:21:40;;;;;;;;;;;23.70;69.70;;;;;;5092106;28;19932;-72
2022/03/09 14:24:09;;;;;;;;;;;22.90;69.20;;;;;;5076776;28;20461;-72
2022/03/09 14:26:40;;;;;;;;;;;22.60;69.90;;;;;;5091644;28;20402;-70
2022/03/09 14:29:08;;;;;;;;;;;21.90;70.30;;;;;;5081014;28;19920;-71